createdAt,value
2022-12-08T00:02:02.323Z,100934.00
2022-12-08T00:04:50.646Z,100932.22
2022-12-08T00:07:36.153Z,100914.84
2022-12-08T00:10:25.181Z,100913.06
2022-12-08T00:12:52.721Z,100911.38
2022-12-08T00:15:22.488Z,100905.25
2022-12-08T00:17:50.545Z,100899.09
2022-12-08T00:20:18.910Z,100893.06
2022-12-08T00:22:47.084Z,100889.72
2022-12-08T00:25:15.797Z,100885.38
2022-12-08T00:27:43.880Z,100877.63
2022-12-08T00:30:12.570Z,100879.34
2022-12-08T00:32:42.009Z,100880.94
2022-12-08T00:35:10.671Z,100871.56
2022-12-08T00:37:38.823Z,100867.16
2022-12-08T00:40:08.769Z,100870.59
2022-12-08T00:42:36.895Z,100867.06
2022-12-08T00:45:05.512Z,100871.34
2022-12-08T00:47:33.654Z,100863.63
2022-12-08T00:50:06.186Z,100868.81
2022-12-08T00:52:34.744Z,100857.44
2022-12-08T00:55:03.133Z,100859.13
2022-12-08T00:57:31.518Z,100860.91
2022-12-08T00:59:59.605Z,100851.34
2022-12-08T01:02:27.716Z,100857.31
2022-12-08T01:04:55.751Z,100845.13
2022-12-08T01:07:25.243Z,100839.88
2022-12-08T01:09:53.722Z,100838.16
2022-12-08T01:12:21.770Z,100839.75
2022-12-08T01:14:49.888Z,100837.03
2022-12-08T01:17:17.968Z,100839.53
2022-12-08T01:19:46.468Z,100838.66
2022-12-08T01:22:14.586Z,100839.59
2022-12-08T01:24:44.093Z,100842.94
2022-12-08T01:27:12.111Z,100841.97
2022-12-08T01:29:40.265Z,100844.50
2022-12-08T01:32:09.722Z,100842.69
2022-12-08T01:34:37.781Z,100846.22
2022-12-08T01:37:05.931Z,100846.16
2022-12-08T01:39:36.533Z,100853.94
2022-12-08T01:42:06.231Z,100851.25
2022-12-08T01:44:58.544Z,100838.25
2022-12-08T01:47:30.902Z,100841.63
2022-12-08T01:49:59.298Z,100838.06
2022-12-08T01:52:33.637Z,100837.16
2022-12-08T01:55:05.279Z,100838.81
2022-12-08T01:57:38.720Z,100831.06
2022-12-08T02:00:09.099Z,100826.69
2022-12-08T02:02:47.717Z,100828.34
2022-12-08T02:05:17.494Z,100824.88
2022-12-08T02:07:46.072Z,100814.47
2022-12-08T02:10:18.889Z,100810.19
2022-12-08T02:12:49.365Z,100817.91
2022-12-08T02:15:17.682Z,100807.59
2022-12-08T02:18:01.110Z,100807.63
2022-12-08T02:20:47.179Z,100805.91
2022-12-08T02:23:25.193Z,100801.50
2022-12-08T02:26:31.393Z,100810.19
2022-12-08T02:29:33.179Z,100811.78
2022-12-08T02:32:22.114Z,100807.50
2022-12-08T02:34:57.272Z,100798.00
2022-12-08T02:37:33.796Z,100802.34
2022-12-08T02:40:08.334Z,100799.72
2022-12-08T02:42:41.224Z,100794.47
2022-12-08T02:45:15.444Z,100794.47
2022-12-08T02:47:44.621Z,100784.16
2022-12-08T02:50:14.335Z,100790.94
2022-12-08T02:52:44.815Z,100785.72
2022-12-08T02:55:22.037Z,100784.72
2022-12-08T02:58:42.442Z,100777.75
2022-12-08T03:01:28.290Z,100774.22
2022-12-08T03:04:06.463Z,100782.06
2022-12-08T03:06:46.502Z,100770.78
2022-12-08T03:09:24.245Z,100768.25
2022-12-08T03:11:57.078Z,100760.41
2022-12-08T03:14:26.119Z,100759.69
2022-12-08T03:16:58.273Z,100751.72
2022-12-08T03:19:29.843Z,100744.75
2022-12-08T03:22:03.407Z,100742.13
2022-12-08T03:24:34.563Z,100736.88
2022-12-08T03:27:05.256Z,100730.81
2022-12-08T03:29:34.305Z,100729.94
2022-12-08T03:32:09.327Z,100726.44
2022-12-08T03:34:41.364Z,100720.44
2022-12-08T03:37:11.485Z,100719.28
2022-12-08T03:39:39.609Z,100716.63
2022-12-08T03:42:10.029Z,100728.81
2022-12-08T03:44:38.391Z,100727.00
2022-12-08T03:47:06.780Z,100716.63
2022-12-08T03:49:34.893Z,100720.00
2022-12-08T03:52:03.032Z,100714.78
2022-12-08T03:54:32.526Z,100703.50
2022-12-08T03:57:00.601Z,100713.22
2022-12-08T03:59:28.717Z,100699.31
2022-12-08T04:01:56.855Z,100705.38
2022-12-08T04:04:25.047Z,100698.59
2022-12-08T04:06:53.551Z,100700.19
2022-12-08T04:09:21.705Z,100698.50
2022-12-08T04:11:51.174Z,100693.41
2022-12-08T04:14:19.255Z,100687.22
2022-12-08T04:16:47.805Z,100687.22
2022-12-08T04:19:16.190Z,100695.31
2022-12-08T04:21:44.381Z,100690.91
2022-12-08T04:24:13.034Z,100687.22
2022-12-08T04:26:41.265Z,100682.03
2022-12-08T04:29:11.145Z,100683.84
2022-12-08T04:31:39.525Z,100673.41
2022-12-08T04:34:08.173Z,100686.41
2022-12-08T04:36:36.499Z,100678.47
2022-12-08T04:39:05.015Z,100667.13
2022-12-08T04:41:33.645Z,100672.38
2022-12-08T04:44:01.914Z,100669.72
2022-12-08T04:46:31.766Z,100674.94
2022-12-08T04:49:00.080Z,100682.91
2022-12-08T04:51:28.443Z,100676.00
2022-12-08T04:53:59.078Z,100679.50
2022-12-08T04:56:27.182Z,100674.16
2022-12-08T04:58:55.236Z,100679.34
2022-12-08T05:01:25.993Z,100672.31
2022-12-08T05:03:55.509Z,100671.44
2022-12-08T05:06:24.475Z,100672.25
2022-12-08T05:08:52.602Z,100671.63
2022-12-08T05:11:20.728Z,100667.19
2022-12-08T05:13:49.032Z,100669.00
2022-12-08T05:16:17.361Z,100657.59
2022-12-08T05:18:45.788Z,100666.22
2022-12-08T05:21:16.065Z,100659.41
2022-12-08T05:23:44.287Z,100662.81
2022-12-08T05:26:14.874Z,100665.28
2022-12-08T05:28:43.747Z,100658.38
2022-12-08T05:31:12.709Z,100651.38
2022-12-08T05:33:41.297Z,100653.19
2022-12-08T05:36:09.753Z,100655.78
2022-12-08T05:38:39.296Z,100654.03
2022-12-08T05:41:07.577Z,100649.56
2022-12-08T05:43:35.634Z,100652.22
2022-12-08T05:46:03.974Z,100650.53
2022-12-08T05:48:32.478Z,100648.66
2022-12-08T05:51:01.092Z,100649.56
2022-12-08T05:53:29.145Z,100645.31
2022-12-08T05:55:58.678Z,100643.53
2022-12-08T05:58:26.797Z,100650.47
2022-12-08T06:00:54.817Z,100646.91
2022-12-08T06:03:23.377Z,100650.53
2022-12-08T06:05:51.565Z,100643.06
2022-12-08T06:08:19.617Z,100647.47
2022-12-08T06:10:48.095Z,100638.72
2022-12-08T06:13:17.596Z,100642.28
2022-12-08T06:15:45.626Z,100639.81
2022-12-08T06:18:13.638Z,100639.88
2022-12-08T06:20:41.674Z,100638.31
2022-12-08T06:23:09.807Z,100642.84
2022-12-08T06:25:37.868Z,100651.28
2022-12-08T06:28:07.159Z,100653.13
2022-12-08T06:30:36.865Z,100650.66
2022-12-08T06:33:04.971Z,100651.97
2022-12-08T06:35:33.055Z,100656.22
2022-12-08T06:38:01.201Z,100656.09
2022-12-08T06:40:29.270Z,100650.16
2022-12-08T06:42:57.425Z,100646.47
2022-12-08T06:45:25.540Z,100639.00
2022-12-08T06:47:57.335Z,100649.16
2022-12-08T06:50:25.835Z,100651.75
2022-12-08T06:53:04.507Z,100643.22
2022-12-08T06:58:21.965Z,100652.75
2022-12-08T07:00:50.133Z,100653.56
2022-12-08T07:03:19.966Z,100654.34
2022-12-08T07:05:48.090Z,100654.28
2022-12-08T07:08:16.910Z,100656.84
2022-12-08T07:10:45.018Z,100656.63
2022-12-08T07:13:13.081Z,100654.91
2022-12-08T07:15:41.162Z,100660.97
2022-12-08T07:18:09.313Z,100663.63
2022-12-08T07:20:39.170Z,100666.31
2022-12-08T07:23:07.377Z,100669.84
2022-12-08T07:25:35.355Z,100662.03
2022-12-08T07:28:09.519Z,100667.31
2022-12-08T07:30:37.964Z,100668.19
2022-12-08T07:33:06.767Z,100670.72
2022-12-08T07:35:35.444Z,100665.66
2022-12-08T07:38:05.121Z,100663.09
2022-12-08T07:40:33.244Z,100658.63
2022-12-08T07:43:01.339Z,100659.44
2022-12-08T07:45:31.913Z,100653.28
2022-12-08T07:48:00.399Z,100648.03
2022-12-08T07:50:28.884Z,100654.13
2022-12-08T07:52:57.305Z,100655.16
2022-12-08T07:55:27.118Z,100658.44
2022-12-08T07:57:55.512Z,100661.94
2022-12-08T08:00:23.921Z,100656.66
2022-12-08T08:02:52.445Z,100654.91
2022-12-08T08:05:21.203Z,100644.53
2022-12-08T08:07:49.613Z,100658.53
2022-12-08T08:10:17.848Z,100652.31
2022-12-08T08:12:47.765Z,100645.38
2022-12-08T08:15:17.511Z,100653.25
2022-12-08T08:17:46.302Z,100653.91
2022-12-08T08:20:15.522Z,100658.25
2022-12-08T08:22:43.624Z,100667.13
2022-12-08T08:25:11.934Z,100664.28
2022-12-08T08:27:40.183Z,100663.41
2022-12-08T08:30:19.623Z,100654.91
2022-12-08T08:32:49.253Z,100661.28
2022-12-08T08:35:18.599Z,100666.38
2022-12-08T08:37:49.265Z,100662.03
2022-12-08T08:40:18.696Z,100656.72
2022-12-08T08:42:47.222Z,100662.00
2022-12-08T08:45:17.309Z,100673.22
2022-12-08T08:47:45.408Z,100672.13
2022-12-08T08:50:13.859Z,100677.41
2022-12-08T08:52:41.891Z,100668.78
2022-12-08T08:55:10.679Z,100671.38
2022-12-08T08:57:39.077Z,100673.09
2022-12-08T09:00:10.192Z,100668.78
2022-12-08T09:02:40.077Z,100666.81
2022-12-08T09:05:08.877Z,100672.09
2022-12-08T09:07:37.146Z,100670.28
2022-12-08T09:10:07.298Z,100667.75
2022-12-08T09:12:35.590Z,100661.75
2022-12-08T09:15:03.700Z,100662.31
2022-12-08T09:17:31.758Z,100664.97
2022-12-08T09:20:03.401Z,100667.69
2022-12-08T09:22:31.783Z,100662.50
2022-12-08T09:24:59.849Z,100662.44
2022-12-08T09:27:28.113Z,100665.84
2022-12-08T09:29:56.541Z,100658.94
2022-12-08T09:32:25.068Z,100664.03
2022-12-08T09:34:54.351Z,100666.63
2022-12-08T09:37:24.184Z,100664.03
2022-12-08T09:39:52.272Z,100675.03
2022-12-08T09:42:31.893Z,100668.91
2022-12-08T09:45:06.891Z,100675.59
2022-12-08T09:47:41.078Z,100681.66
2022-12-08T09:50:17.243Z,100679.22
2022-12-08T09:52:54.335Z,100683.19
2022-12-08T09:55:26.521Z,100690.06
2022-12-08T09:58:02.240Z,100683.28
2022-12-08T10:00:31.038Z,100678.97
2022-12-08T10:03:00.227Z,100673.63
2022-12-08T10:05:31.918Z,100678.97
2022-12-08T10:08:09.547Z,100672.88
2022-12-08T10:10:43.075Z,100675.09
2022-12-08T10:13:20.644Z,100671.72
2022-12-08T10:15:58.979Z,100667.34
2022-12-08T10:18:30.717Z,100667.34
2022-12-08T10:21:15.942Z,100656.06
2022-12-08T10:23:47.993Z,100655.94
2022-12-08T10:26:17.848Z,100654.16
2022-12-08T10:28:46.679Z,100645.41
2022-12-08T10:31:17.756Z,100643.75
2022-12-08T10:33:50.685Z,100638.44
2022-12-08T10:36:18.801Z,100641.97
2022-12-08T10:38:48.367Z,100631.53
2022-12-08T10:41:18.254Z,100636.59
2022-12-08T10:43:49.966Z,100639.09
2022-12-08T10:46:21.075Z,100635.34
2022-12-08T10:48:51.491Z,100637.00
2022-12-08T10:51:29.998Z,100636.09
2022-12-08T10:53:59.606Z,100635.91
2022-12-08T10:56:29.814Z,100630.50
2022-12-08T10:59:15.229Z,100627.13
2022-12-08T11:01:47.169Z,100627.88
2022-12-08T11:04:19.868Z,100632.13
2022-12-08T11:06:49.362Z,100627.00
2022-12-08T11:09:46.760Z,100624.47
2022-12-08T11:12:16.699Z,100629.81
2022-12-08T11:14:51.671Z,100632.28
2022-12-08T11:17:27.410Z,100637.34
2022-12-08T11:20:00.673Z,100627.75
2022-12-08T11:22:32.326Z,100634.75
2022-12-08T11:25:12.084Z,100639.94
2022-12-08T11:27:44.433Z,100634.25
2022-12-08T11:30:17.446Z,100626.94
2022-12-08T11:32:48.155Z,100626.16
2022-12-08T11:35:22.673Z,100631.31
2022-12-08T11:37:51.179Z,100624.25
2022-12-08T11:40:27.597Z,100627.75
2022-12-08T11:43:07.530Z,100629.47
2022-12-08T11:45:37.308Z,100621.50
2022-12-08T11:48:12.555Z,100626.72
2022-12-08T11:50:46.552Z,100609.41
2022-12-08T11:53:26.127Z,100618.91
2022-12-08T11:55:59.564Z,100617.94
2022-12-08T11:58:36.078Z,100611.94
2022-12-08T12:01:04.335Z,100614.31
2022-12-08T12:03:37.963Z,100610.69
2022-12-08T12:06:53.757Z,100611.66
2022-12-08T12:09:35.028Z,100602.06
2022-12-08T12:12:20.015Z,100610.31
2022-12-08T12:15:14.419Z,100605.91
2022-12-08T12:17:47.154Z,100598.09
2022-12-08T12:20:21.729Z,100597.97
2022-12-08T12:22:53.611Z,100594.53
2022-12-08T12:25:24.326Z,100592.97
2022-12-08T12:28:02.097Z,100594.06
2022-12-08T12:30:49.928Z,100584.69
2022-12-08T12:33:19.557Z,100584.44
2022-12-08T12:35:49.525Z,100579.75
2022-12-08T12:38:43.075Z,100581.31
2022-12-08T12:41:18.675Z,100589.44
2022-12-08T12:44:18.668Z,100579.75
2022-12-08T12:47:00.119Z,100571.72
2022-12-08T12:49:51.223Z,100569.06
2022-12-08T12:52:48.322Z,100572.56
2022-12-08T12:55:56.469Z,100562.22
2022-12-08T12:58:43.571Z,100555.53
2022-12-08T13:01:57.295Z,100549.22
2022-12-08T13:04:36.280Z,100549.06
2022-12-08T13:07:05.249Z,100561.06
2022-12-08T13:09:38.025Z,100550.63
2022-12-08T13:12:12.472Z,100555.84
2022-12-08T13:14:48.538Z,100550.91
2022-12-08T13:17:26.792Z,100548.94
2022-12-08T13:19:59.569Z,100545.63
2022-12-08T13:23:02.074Z,100548.91
2022-12-08T13:25:52.640Z,100544.78
2022-12-08T13:28:29.945Z,100538.94
2022-12-08T13:31:00.167Z,100541.72
2022-12-08T13:33:34.097Z,100537.09
2022-12-08T13:36:14.356Z,100530.47
2022-12-08T13:38:46.515Z,100515.69
2022-12-08T13:41:22.474Z,100514.06
2022-12-08T13:44:50.379Z,100515.63
2022-12-08T13:47:24.522Z,100518.94
2022-12-08T13:51:23.636Z,100514.47
2022-12-08T13:58:38.722Z,100516.50
2022-12-08T14:01:12.133Z,100525.97
2022-12-08T14:04:12.740Z,100517.03
2022-12-08T14:06:38.968Z,100527.44
2022-12-08T14:09:12.989Z,100527.44
2022-12-08T14:11:44.024Z,100527.38
2022-12-08T14:14:32.591Z,100523.56
2022-12-08T14:17:03.476Z,100532.03
2022-12-08T14:19:34.601Z,100526.78
2022-12-08T14:22:07.049Z,100537.25
2022-12-08T14:24:37.282Z,100535.53
2022-12-08T14:27:07.663Z,100534.94
2022-12-08T14:29:42.896Z,100542.63
2022-12-08T14:32:27.170Z,100544.44
2022-12-08T14:35:21.882Z,100544.59
2022-12-08T14:37:56.790Z,100547.25
2022-12-08T14:40:48.760Z,100540.47
2022-12-08T14:43:27.260Z,100550.91
2022-12-08T14:46:02.869Z,100552.75
2022-12-08T14:48:44.731Z,100542.41
2022-12-08T14:51:25.409Z,100546.94
2022-12-08T14:54:00.041Z,100546.16
2022-12-08T14:56:38.061Z,100545.38
2022-12-08T14:59:12.615Z,100545.69
2022-12-08T15:01:42.938Z,100542.66
2022-12-08T15:04:19.194Z,100552.63
2022-12-08T15:06:52.666Z,100555.31
2022-12-08T15:09:32.012Z,100551.91
2022-12-08T15:12:06.585Z,100553.81
2022-12-08T15:14:37.389Z,100553.03
2022-12-08T15:17:37.044Z,100546.22
2022-12-08T15:20:09.266Z,100538.81
2022-12-08T15:22:38.268Z,100546.75
2022-12-08T15:25:13.780Z,100553.53
2022-12-08T15:27:50.280Z,100544.97
2022-12-08T15:30:19.337Z,100551.13
2022-12-08T15:32:47.421Z,100552.97
2022-12-08T15:35:16.339Z,100551.41
2022-12-08T15:37:44.787Z,100551.81
2022-12-08T15:40:18.893Z,100563.88
2022-12-08T15:42:49.018Z,100564.56
2022-12-08T15:45:18.448Z,100551.72
2022-12-08T15:47:47.054Z,100554.38
2022-12-08T15:50:21.363Z,100556.84
2022-12-08T15:52:50.023Z,100555.25
2022-12-08T15:55:20.125Z,100558.00
2022-12-08T16:00:56.546Z,100571.00
2022-12-08T16:04:13.900Z,100566.81
2022-12-08T16:09:14.941Z,100567.06
2022-12-08T16:12:07.240Z,100562.94
2022-12-08T16:17:25.857Z,100567.13
2022-12-08T16:19:56.661Z,100558.63
2022-12-08T16:25:19.200Z,100555.25
2022-12-08T16:28:01.289Z,100560.50
2022-12-08T16:30:31.218Z,100566.59
2022-12-08T16:32:59.801Z,100571.03
2022-12-08T16:35:28.168Z,100565.88
2022-12-08T16:37:56.547Z,100565.84
2022-12-08T16:40:53.666Z,100565.09
2022-12-08T16:43:20.793Z,100572.84
2022-12-08T16:45:50.271Z,100570.19
2022-12-08T16:48:20.644Z,100576.31
2022-12-08T16:50:48.727Z,100563.56
2022-12-08T16:53:16.774Z,100560.16
2022-12-08T16:55:47.367Z,100564.34
2022-12-08T16:58:16.403Z,100555.69
2022-12-08T17:00:44.721Z,100553.16
2022-12-08T17:03:16.455Z,100549.03
2022-12-08T17:05:45.729Z,100554.44
2022-12-08T17:08:14.170Z,100554.41
2022-12-08T17:11:04.902Z,100552.91
2022-12-08T17:13:33.088Z,100558.03
2022-12-08T17:16:01.917Z,100557.22
2022-12-08T17:18:31.353Z,100554.50
2022-12-08T17:20:59.800Z,100565.78
2022-12-08T17:23:27.905Z,100555.50
2022-12-08T17:26:00.081Z,100558.00
2022-12-08T17:28:51.900Z,100557.22
2022-12-08T17:31:17.672Z,100554.56
2022-12-08T17:33:47.962Z,100552.75
2022-12-08T17:36:18.065Z,100557.94
2022-12-08T17:38:46.410Z,100551.09
2022-12-08T17:41:14.480Z,100559.59
2022-12-08T17:43:43.006Z,100561.19
2022-12-08T17:46:11.229Z,100545.63
2022-12-08T17:48:39.280Z,100552.50
2022-12-08T17:51:11.879Z,100558.41
2022-12-08T17:53:40.852Z,100556.75
2022-12-08T17:56:16.280Z,100560.13
2022-12-08T17:58:45.633Z,100558.34
2022-12-08T18:01:15.767Z,100559.06
2022-12-08T18:03:43.856Z,100550.59
2022-12-08T18:06:13.896Z,100554.69
2022-12-08T18:08:42.472Z,100552.25
2022-12-08T18:11:14.455Z,100555.38
2022-12-08T18:13:43.071Z,100552.84
2022-12-08T18:16:11.411Z,100556.22
2022-12-08T18:18:39.478Z,100564.81
2022-12-08T18:21:08.356Z,100566.47
2022-12-08T18:23:39.396Z,100568.19
2022-12-08T18:26:08.959Z,100562.34
2022-12-08T18:28:38.150Z,100555.38
2022-12-08T18:31:09.848Z,100554.38
2022-12-08T18:33:38.174Z,100550.91
2022-12-08T18:36:10.560Z,100537.78
2022-12-08T18:38:40.479Z,100540.44
2022-12-08T18:41:10.371Z,100538.50
2022-12-08T18:43:38.918Z,100536.84
2022-12-08T18:46:09.482Z,100544.66
2022-12-08T18:48:38.485Z,100545.47
2022-12-08T18:51:10.951Z,100540.97
2022-12-08T18:53:41.210Z,100540.84
2022-12-08T18:56:10.648Z,100548.56
2022-12-08T18:58:38.741Z,100554.63
2022-12-08T19:01:07.086Z,100547.63
2022-12-08T19:03:35.205Z,100553.63
2022-12-08T19:06:04.396Z,100548.44
2022-12-08T19:08:32.526Z,100549.44
2022-12-08T19:11:02.026Z,100550.28
2022-12-08T19:13:30.503Z,100554.44
2022-12-08T19:15:58.646Z,100552.53
2022-12-08T19:18:26.693Z,100555.22
2022-12-08T19:20:56.889Z,100559.47
2022-12-08T19:23:25.044Z,100546.41
2022-12-08T19:25:53.104Z,100548.06
2022-12-08T19:28:22.614Z,100550.66
2022-12-08T19:30:50.750Z,100549.78
2022-12-08T19:33:18.983Z,100549.78
2022-12-08T19:35:52.217Z,100561.81
2022-12-08T19:38:20.960Z,100549.63
2022-12-08T19:41:06.448Z,100554.81
2022-12-08T19:43:54.156Z,100561.81
2022-12-08T19:46:22.345Z,100560.97
2022-12-08T19:48:50.525Z,100560.16
2022-12-08T19:51:18.598Z,100557.44
2022-12-08T19:53:47.898Z,100560.97
2022-12-08T19:56:16.167Z,100554.81
2022-12-08T19:58:46.511Z,100553.94
2022-12-08T20:01:14.737Z,100555.78
2022-12-08T20:03:42.897Z,100554.06
2022-12-08T20:06:15.586Z,100548.88
2022-12-08T20:08:49.063Z,100557.69
2022-12-08T20:11:18.938Z,100564.41
2022-12-08T20:13:48.532Z,100566.16
2022-12-08T20:16:18.110Z,100568.69
2022-12-08T20:18:47.876Z,100562.63
2022-12-08T20:21:15.945Z,100569.53
2022-12-08T20:23:45.470Z,100567.81
2022-12-08T20:26:14.511Z,100569.38
2022-12-08T20:28:42.613Z,100570.16
2022-12-08T20:31:19.421Z,100559.78
2022-12-08T20:33:48.056Z,100572.81
2022-12-08T20:36:18.804Z,100571.16
2022-12-08T20:38:46.930Z,100565.91
2022-12-08T20:41:16.720Z,100567.63
2022-12-08T20:43:48.928Z,100561.09
2022-12-08T20:46:19.556Z,100569.81
2022-12-08T20:48:48.425Z,100573.13
2022-12-08T20:51:19.031Z,100565.22
2022-12-08T20:53:47.902Z,100567.00
2022-12-08T20:56:17.133Z,100560.09
2022-12-08T20:58:45.455Z,100567.88
2022-12-08T21:01:15.394Z,100568.75
2022-12-08T21:03:46.656Z,100562.63
2022-12-08T21:06:15.196Z,100567.75
2022-12-08T21:08:46.037Z,100561.69
2022-12-08T21:11:14.012Z,100573.72
2022-12-08T21:13:43.172Z,100573.66
2022-12-08T21:16:13.900Z,100572.69
2022-12-08T21:18:42.555Z,100572.63
2022-12-08T21:21:14.300Z,100576.19
2022-12-08T21:23:42.953Z,100578.78
2022-12-08T21:26:13.098Z,100586.56
2022-12-08T21:28:41.605Z,100577.88
2022-12-08T21:31:10.375Z,100576.94
2022-12-08T21:33:39.251Z,100581.16
2022-12-08T21:36:09.846Z,100577.09
2022-12-08T21:38:40.853Z,100578.78
2022-12-08T21:41:11.951Z,100580.53
2022-12-08T21:43:40.802Z,100577.81
2022-12-08T21:46:16.231Z,100580.44
2022-12-08T21:48:44.662Z,100581.16
2022-12-08T21:51:13.021Z,100582.00
2022-12-08T21:53:42.727Z,100580.34
2022-12-08T21:56:11.710Z,100582.97
2022-12-08T21:58:40.257Z,100577.94
2022-12-08T22:01:09.425Z,100578.78
2022-12-08T22:03:38.661Z,100576.09
2022-12-08T22:06:07.817Z,100579.53
2022-12-08T22:08:36.853Z,100583.81
2022-12-08T22:11:08.113Z,100577.75
2022-12-08T22:13:36.991Z,100582.94
2022-12-08T22:16:07.573Z,100584.72
2022-12-08T22:18:36.681Z,100582.13
2022-12-08T22:21:09.776Z,100576.19
2022-12-08T22:23:38.448Z,100579.53
2022-12-08T22:26:08.776Z,100582.13
2022-12-08T22:28:39.003Z,100585.47
2022-12-08T22:31:12.091Z,100575.09
2022-12-08T22:33:40.916Z,100578.78
2022-12-08T22:36:14.953Z,100576.25
2022-12-08T22:38:43.048Z,100571.41
2022-12-08T22:41:13.275Z,100574.78
2022-12-08T22:43:41.974Z,100570.41
2022-12-08T22:46:12.278Z,100569.59
2022-12-08T22:48:40.731Z,100575.69
2022-12-08T22:51:09.405Z,100568.63
2022-12-08T22:53:37.841Z,100571.97
2022-12-08T22:56:06.908Z,100570.47
2022-12-08T22:58:36.921Z,100573.00
2022-12-08T23:01:05.748Z,100568.75
2022-12-08T23:03:34.693Z,100568.63
2022-12-08T23:06:03.108Z,100570.28
2022-12-08T23:08:31.314Z,100572.13
2022-12-08T23:10:59.358Z,100564.34
2022-12-08T23:13:27.696Z,100566.94
2022-12-08T23:15:57.158Z,100569.69
2022-12-08T23:18:25.621Z,100568.84
2022-12-08T23:20:53.997Z,100571.34
2022-12-08T23:23:22.015Z,100573.94
2022-12-08T23:25:50.103Z,100569.75
2022-12-08T23:28:18.192Z,100572.19
2022-12-08T23:30:46.496Z,100559.31
2022-12-08T23:33:16.256Z,100569.00
2022-12-08T23:35:44.552Z,100575.16
2022-12-08T23:38:12.574Z,100573.47
2022-12-08T23:40:41.111Z,100576.09
2022-12-08T23:43:09.211Z,100576.41
2022-12-08T23:45:37.364Z,100573.81
2022-12-08T23:48:06.170Z,100567.50
2022-12-08T23:50:35.849Z,100564.78
2022-12-08T23:53:07.093Z,100560.47
2022-12-08T23:55:35.400Z,100562.19
2022-12-08T23:58:03.817Z,100562.03
